sensor_id;sensor_type;location;lat;lon;timestamp;P1;durP1;ratioP1;P2;durP2;ratioP2
47299;SDS011;33036;51.320;17.234;2022-10-20T00:03:23;18.40;;;8.10;;
47299;SDS011;33036;51.320;17.234;2022-10-20T00:07:25;18.83;;;7.78;;
47299;SDS011;33036;51.320;17.234;2022-10-20T00:11:26;18.67;;;8.48;;
47299;SDS011;33036;51.320;17.234;2022-10-20T00:15:27;18.23;;;7.45;;
47299;SDS011;33036;51.320;17.234;2022-10-20T00:19:28;16.08;;;8.25;;
47299;SDS011;33036;51.320;17.234;2022-10-20T00:23:29;21.45;;;9.60;;
47299;SDS011;33036;51.320;17.234;2022-10-20T00:27:30;21.17;;;9.35;;
47299;SDS011;33036;51.320;17.234;2022-10-20T00:31:31;22.80;;;8.55;;
47299;SDS011;33036;51.320;17.234;2022-10-20T00:35:32;19.83;;;8.30;;
47299;SDS011;33036;51.320;17.234;2022-10-20T00:39:36;19.98;;;9.20;;
47299;SDS011;33036;51.320;17.234;2022-10-20T00:47:59;21.98;;;8.55;;
47299;SDS011;33036;51.320;17.234;2022-10-20T00:52:27;17.80;;;8.98;;
47299;SDS011;33036;51.320;17.234;2022-10-20T00:56:28;23.38;;;10.07;;
47299;SDS011;33036;51.320;17.234;2022-10-20T01:00:29;23.90;;;10.13;;
47299;SDS011;33036;51.320;17.234;2022-10-20T01:04:30;22.83;;;11.10;;
47299;SDS011;33036;51.320;17.234;2022-10-20T01:08:31;25.58;;;10.73;;
47299;SDS011;33036;51.320;17.234;2022-10-20T01:12:46;21.67;;;9.90;;
47299;SDS011;33036;51.320;17.234;2022-10-20T01:21:34;23.42;;;10.27;;
47299;SDS011;33036;51.320;17.234;2022-10-20T01:30:25;23.20;;;10.40;;
47299;SDS011;33036;51.320;17.234;2022-10-20T01:38:34;14.68;;;6.70;;
47299;SDS011;33036;51.320;17.234;2022-10-20T01:42:43;16.30;;;6.93;;
47299;SDS011;33036;51.320;17.234;2022-10-20T01:46:46;12.52;;;6.13;;
47299;SDS011;33036;51.320;17.234;2022-10-20T01:50:47;12.75;;;5.78;;
47299;SDS011;33036;51.320;17.234;2022-10-20T01:54:49;12.20;;;6.05;;
47299;SDS011;33036;51.320;17.234;2022-10-20T01:59:05;14.57;;;6.72;;
47299;SDS011;33036;51.320;17.234;2022-10-20T02:07:33;15.50;;;6.22;;
47299;SDS011;33036;51.320;17.234;2022-10-20T02:15:44;12.93;;;5.28;;
47299;SDS011;33036;51.320;17.234;2022-10-20T02:19:49;9.65;;;4.65;;
47299;SDS011;33036;51.320;17.234;2022-10-20T02:23:51;14.68;;;4.90;;
47299;SDS011;33036;51.320;17.234;2022-10-20T02:27:54;10.07;;;5.10;;
47299;SDS011;33036;51.320;17.234;2022-10-20T02:31:56;15.75;;;5.68;;
47299;SDS011;33036;51.320;17.234;2022-10-20T02:35:58;14.20;;;5.28;;
47299;SDS011;33036;51.320;17.234;2022-10-20T02:39:59;11.77;;;4.93;;
47299;SDS011;33036;51.320;17.234;2022-10-20T02:44:00;14.27;;;4.85;;
47299;SDS011;33036;51.320;17.234;2022-10-20T02:48:01;9.15;;;4.53;;
47299;SDS011;33036;51.320;17.234;2022-10-20T02:52:02;13.75;;;5.32;;
47299;SDS011;33036;51.320;17.234;2022-10-20T02:56:03;13.68;;;4.53;;
47299;SDS011;33036;51.320;17.234;2022-10-20T03:00:05;14.00;;;4.65;;
47299;SDS011;33036;51.320;17.234;2022-10-20T03:04:06;9.70;;;4.57;;
47299;SDS011;33036;51.320;17.234;2022-10-20T03:08:08;10.70;;;4.32;;
47299;SDS011;33036;51.320;17.234;2022-10-20T03:12:08;12.88;;;4.10;;
47299;SDS011;33036;51.320;17.234;2022-10-20T03:16:09;9.18;;;4.00;;
47299;SDS011;33036;51.320;17.234;2022-10-20T03:20:10;14.77;;;4.10;;
47299;SDS011;33036;51.320;17.234;2022-10-20T03:24:11;10.27;;;4.40;;
47299;SDS011;33036;51.320;17.234;2022-10-20T03:28:12;16.02;;;3.72;;
47299;SDS011;33036;51.320;17.234;2022-10-20T03:32:13;8.77;;;3.65;;
47299;SDS011;33036;51.320;17.234;2022-10-20T03:36:14;13.02;;;4.22;;
47299;SDS011;33036;51.320;17.234;2022-10-20T03:40:15;7.03;;;4.10;;
47299;SDS011;33036;51.320;17.234;2022-10-20T03:44:16;12.80;;;4.13;;
47299;SDS011;33036;51.320;17.234;2022-10-20T03:48:17;9.55;;;4.20;;
47299;SDS011;33036;51.320;17.234;2022-10-20T03:52:18;12.00;;;4.22;;
47299;SDS011;33036;51.320;17.234;2022-10-20T03:56:20;10.18;;;4.47;;
47299;SDS011;33036;51.320;17.234;2022-10-20T04:00:21;10.55;;;4.13;;
47299;SDS011;33036;51.320;17.234;2022-10-20T04:04:22;13.13;;;4.70;;
47299;SDS011;33036;51.320;17.234;2022-10-20T04:08:23;12.45;;;5.07;;
47299;SDS011;33036;51.320;17.234;2022-10-20T04:12:24;14.35;;;5.55;;
47299;SDS011;33036;51.320;17.234;2022-10-20T04:16:25;17.48;;;5.35;;
47299;SDS011;33036;51.320;17.234;2022-10-20T04:20:26;19.10;;;5.68;;
47299;SDS011;33036;51.320;17.234;2022-10-20T04:24:26;21.98;;;5.40;;
47299;SDS011;33036;51.320;17.234;2022-10-20T04:28:27;16.35;;;5.72;;
47299;SDS011;33036;51.320;17.234;2022-10-20T04:32:29;15.45;;;5.60;;
47299;SDS011;33036;51.320;17.234;2022-10-20T04:36:30;19.05;;;6.03;;
47299;SDS011;33036;51.320;17.234;2022-10-20T04:40:30;17.95;;;5.60;;
47299;SDS011;33036;51.320;17.234;2022-10-20T04:44:31;14.18;;;5.80;;
47299;SDS011;33036;51.320;17.234;2022-10-20T04:48:32;16.25;;;6.30;;
47299;SDS011;33036;51.320;17.234;2022-10-20T04:52:33;17.75;;;6.95;;
47299;SDS011;33036;51.320;17.234;2022-10-20T04:56:34;18.80;;;8.27;;
47299;SDS011;33036;51.320;17.234;2022-10-20T05:00:36;22.98;;;10.32;;
47299;SDS011;33036;51.320;17.234;2022-10-20T05:04:37;19.02;;;9.57;;
47299;SDS011;33036;51.320;17.234;2022-10-20T05:08:38;17.92;;;9.05;;
47299;SDS011;33036;51.320;17.234;2022-10-20T05:12:39;23.52;;;10.10;;
47299;SDS011;33036;51.320;17.234;2022-10-20T05:16:40;20.83;;;10.85;;
47299;SDS011;33036;51.320;17.234;2022-10-20T05:20:41;27.83;;;10.38;;
47299;SDS011;33036;51.320;17.234;2022-10-20T05:24:42;23.20;;;10.70;;
47299;SDS011;33036;51.320;17.234;2022-10-20T05:28:44;23.70;;;8.82;;
47299;SDS011;33036;51.320;17.234;2022-10-20T05:32:47;23.02;;;10.27;;
47299;SDS011;33036;51.320;17.234;2022-10-20T05:36:48;21.25;;;10.45;;
47299;SDS011;33036;51.320;17.234;2022-10-20T05:40:49;16.65;;;7.80;;
47299;SDS011;33036;51.320;17.234;2022-10-20T05:44:49;22.92;;;9.52;;
47299;SDS011;33036;51.320;17.234;2022-10-20T05:48:54;19.95;;;10.43;;
47299;SDS011;33036;51.320;17.234;2022-10-20T05:52:57;24.23;;;10.45;;
47299;SDS011;33036;51.320;17.234;2022-10-20T05:56:58;16.67;;;8.45;;
47299;SDS011;33036;51.320;17.234;2022-10-20T06:01:09;29.42;;;11.25;;
47299;SDS011;33036;51.320;17.234;2022-10-20T06:05:10;29.20;;;13.13;;
47299;SDS011;33036;51.320;17.234;2022-10-20T06:09:11;20.70;;;10.73;;
47299;SDS011;33036;51.320;17.234;2022-10-20T06:13:12;21.65;;;10.55;;
47299;SDS011;33036;51.320;17.234;2022-10-20T06:17:13;19.48;;;9.77;;
47299;SDS011;33036;51.320;17.234;2022-10-20T06:21:21;24.65;;;10.38;;
47299;SDS011;33036;51.320;17.234;2022-10-20T06:25:23;24.45;;;9.50;;
47299;SDS011;33036;51.320;17.234;2022-10-20T06:29:25;22.73;;;8.95;;
47299;SDS011;33036;51.320;17.234;2022-10-20T06:33:28;27.10;;;8.60;;
47299;SDS011;33036;51.320;17.234;2022-10-20T06:37:29;16.42;;;8.20;;
47299;SDS011;33036;51.320;17.234;2022-10-20T06:41:31;33.88;;;8.07;;
47299;SDS011;33036;51.320;17.234;2022-10-20T06:45:32;18.67;;;9.13;;
47299;SDS011;33036;51.320;17.234;2022-10-20T06:49:35;20.83;;;10.13;;
47299;SDS011;33036;51.320;17.234;2022-10-20T06:53:37;28.92;;;14.82;;
47299;SDS011;33036;51.320;17.234;2022-10-20T06:57:38;20.98;;;10.77;;
47299;SDS011;33036;51.320;17.234;2022-10-20T07:01:39;21.42;;;8.82;;
47299;SDS011;33036;51.320;17.234;2022-10-20T07:05:40;19.42;;;8.45;;
47299;SDS011;33036;51.320;17.234;2022-10-20T07:09:41;21.38;;;11.27;;
47299;SDS011;33036;51.320;17.234;2022-10-20T07:13:42;22.27;;;10.35;;
47299;SDS011;33036;51.320;17.234;2022-10-20T07:17:43;25.70;;;10.18;;
47299;SDS011;33036;51.320;17.234;2022-10-20T07:21:44;18.50;;;9.60;;
47299;SDS011;33036;51.320;17.234;2022-10-20T07:25:45;24.67;;;10.10;;
47299;SDS011;33036;51.320;17.234;2022-10-20T07:29:46;21.55;;;9.73;;
47299;SDS011;33036;51.320;17.234;2022-10-20T07:33:48;16.95;;;9.27;;
47299;SDS011;33036;51.320;17.234;2022-10-20T07:37:49;20.15;;;9.70;;
47299;SDS011;33036;51.320;17.234;2022-10-20T07:41:53;18.45;;;10.02;;
47299;SDS011;33036;51.320;17.234;2022-10-20T07:45:54;22.60;;;10.23;;
47299;SDS011;33036;51.320;17.234;2022-10-20T07:49:55;33.60;;;11.85;;
47299;SDS011;33036;51.320;17.234;2022-10-20T07:53:59;21.83;;;10.50;;
47299;SDS011;33036;51.320;17.234;2022-10-20T07:58:06;26.15;;;12.82;;
47299;SDS011;33036;51.320;17.234;2022-10-20T08:02:08;27.65;;;14.13;;
47299;SDS011;33036;51.320;17.234;2022-10-20T08:06:10;35.42;;;17.02;;
47299;SDS011;33036;51.320;17.234;2022-10-20T08:10:11;34.85;;;15.73;;
47299;SDS011;33036;51.320;17.234;2022-10-20T08:14:12;32.90;;;17.00;;
47299;SDS011;33036;51.320;17.234;2022-10-20T08:18:13;36.88;;;16.08;;
47299;SDS011;33036;51.320;17.234;2022-10-20T08:22:14;35.28;;;16.08;;
47299;SDS011;33036;51.320;17.234;2022-10-20T08:26:19;27.70;;;13.75;;
47299;SDS011;33036;51.320;17.234;2022-10-20T08:30:24;22.35;;;10.57;;
47299;SDS011;33036;51.320;17.234;2022-10-20T08:34:25;20.92;;;8.57;;
47299;SDS011;33036;51.320;17.234;2022-10-20T08:38:26;27.55;;;9.07;;
47299;SDS011;33036;51.320;17.234;2022-10-20T08:42:27;14.93;;;8.18;;
47299;SDS011;33036;51.320;17.234;2022-10-20T08:46:35;17.00;;;8.13;;
47299;SDS011;33036;51.320;17.234;2022-10-20T08:54:39;18.45;;;8.40;;
47299;SDS011;33036;51.320;17.234;2022-10-20T08:58:42;26.50;;;7.70;;
47299;SDS011;33036;51.320;17.234;2022-10-20T09:02:44;17.83;;;8.70;;
47299;SDS011;33036;51.320;17.234;2022-10-20T09:06:47;19.33;;;8.57;;
47299;SDS011;33036;51.320;17.234;2022-10-20T09:10:52;20.70;;;8.93;;
47299;SDS011;33036;51.320;17.234;2022-10-20T09:14:55;18.90;;;8.68;;
47299;SDS011;33036;51.320;17.234;2022-10-20T09:19:00;15.65;;;7.90;;
47299;SDS011;33036;51.320;17.234;2022-10-20T09:23:01;19.52;;;8.90;;
47299;SDS011;33036;51.320;17.234;2022-10-20T09:27:16;16.00;;;7.95;;
47299;SDS011;33036;51.320;17.234;2022-10-20T09:31:33;19.92;;;9.27;;
47299;SDS011;33036;51.320;17.234;2022-10-20T09:35:45;16.33;;;9.15;;
47299;SDS011;33036;51.320;17.234;2022-10-20T09:39:55;19.42;;;8.10;;
47299;SDS011;33036;51.320;17.234;2022-10-20T09:44:07;17.15;;;7.43;;
47299;SDS011;33036;51.320;17.234;2022-10-20T09:48:32;18.67;;;6.80;;
47299;SDS011;33036;51.320;17.234;2022-10-20T09:52:35;17.33;;;5.95;;
47299;SDS011;33036;51.320;17.234;2022-10-20T09:56:46;13.63;;;6.28;;
47299;SDS011;33036;51.320;17.234;2022-10-20T10:05:17;19.73;;;5.72;;
47299;SDS011;33036;51.320;17.234;2022-10-20T10:09:30;12.25;;;4.63;;
47299;SDS011;33036;51.320;17.234;2022-10-20T10:13:38;14.13;;;5.65;;
47299;SDS011;33036;51.320;17.234;2022-10-20T10:17:42;16.63;;;5.32;;
47299;SDS011;33036;51.320;17.234;2022-10-20T10:21:54;10.43;;;4.95;;
47299;SDS011;33036;51.320;17.234;2022-10-20T10:26:02;11.02;;;5.53;;
47299;SDS011;33036;51.320;17.234;2022-10-20T10:30:18;11.48;;;4.28;;
47299;SDS011;33036;51.320;17.234;2022-10-20T10:38:58;13.50;;;5.05;;
47299;SDS011;33036;51.320;17.234;2022-10-20T11:00:50;8.00;;;3.97;;
47299;SDS011;33036;51.320;17.234;2022-10-20T11:26:40;11.15;;;4.93;;
47299;SDS011;33036;51.320;17.234;2022-10-20T11:30:44;14.07;;;4.32;;
47299;SDS011;33036;51.320;17.234;2022-10-20T11:39:10;7.43;;;3.92;;
47299;SDS011;33036;51.320;17.234;2022-10-20T11:43:30;12.55;;;4.40;;
47299;SDS011;33036;51.320;17.234;2022-10-20T11:47:35;8.43;;;4.18;;
47299;SDS011;33036;51.320;17.234;2022-10-20T12:30:40;11.57;;;3.88;;
47299;SDS011;33036;51.320;17.234;2022-10-20T12:34:42;7.43;;;3.08;;
47299;SDS011;33036;51.320;17.234;2022-10-20T12:38:47;7.88;;;3.03;;
47299;SDS011;33036;51.320;17.234;2022-10-20T12:42:51;9.00;;;3.20;;
47299;SDS011;33036;51.320;17.234;2022-10-20T12:47:02;8.82;;;3.25;;
47299;SDS011;33036;51.320;17.234;2022-10-20T12:51:07;7.32;;;3.30;;
47299;SDS011;33036;51.320;17.234;2022-10-20T12:55:34;7.70;;;3.17;;
47299;SDS011;33036;51.320;17.234;2022-10-20T12:59:37;6.00;;;2.92;;
47299;SDS011;33036;51.320;17.234;2022-10-20T13:11:57;6.32;;;2.55;;
47299;SDS011;33036;51.320;17.234;2022-10-20T13:15:59;10.45;;;3.10;;
47299;SDS011;33036;51.320;17.234;2022-10-20T13:20:02;6.70;;;3.13;;
47299;SDS011;33036;51.320;17.234;2022-10-20T13:24:17;12.40;;;4.88;;
47299;SDS011;33036;51.320;17.234;2022-10-20T13:28:30;9.95;;;2.70;;
47299;SDS011;33036;51.320;17.234;2022-10-20T13:41:02;4.25;;;2.25;;
47299;SDS011;33036;51.320;17.234;2022-10-20T13:45:32;5.68;;;2.55;;
47299;SDS011;33036;51.320;17.234;2022-10-20T13:54:02;6.25;;;2.78;;
47299;SDS011;33036;51.320;17.234;2022-10-20T13:58:07;5.20;;;2.60;;
47299;SDS011;33036;51.320;17.234;2022-10-20T14:02:22;6.65;;;3.08;;
47299;SDS011;33036;51.320;17.234;2022-10-20T14:15:04;7.30;;;2.57;;
47299;SDS011;33036;51.320;17.234;2022-10-20T14:19:07;7.15;;;2.40;;
47299;SDS011;33036;51.320;17.234;2022-10-20T14:23:11;6.00;;;2.55;;
47299;SDS011;33036;51.320;17.234;2022-10-20T14:27:33;14.05;;;4.28;;
47299;SDS011;33036;51.320;17.234;2022-10-20T14:31:33;8.90;;;4.50;;
47299;SDS011;33036;51.320;17.234;2022-10-20T14:35:38;5.15;;;2.50;;
47299;SDS011;33036;51.320;17.234;2022-10-20T14:39:41;9.43;;;4.55;;
47299;SDS011;33036;51.320;17.234;2022-10-20T14:43:42;10.40;;;3.10;;
47299;SDS011;33036;51.320;17.234;2022-10-20T14:47:45;8.95;;;3.60;;
47299;SDS011;33036;51.320;17.234;2022-10-20T14:56:21;7.60;;;3.40;;
47299;SDS011;33036;51.320;17.234;2022-10-20T15:04:31;7.80;;;3.60;;
47299;SDS011;33036;51.320;17.234;2022-10-20T15:08:32;5.15;;;2.83;;
47299;SDS011;33036;51.320;17.234;2022-10-20T15:16:40;16.13;;;3.35;;
47299;SDS011;33036;51.320;17.234;2022-10-20T15:20:44;10.43;;;3.60;;
47299;SDS011;33036;51.320;17.234;2022-10-20T15:24:47;7.38;;;3.55;;
47299;SDS011;33036;51.320;17.234;2022-10-20T15:28:49;18.75;;;8.00;;
47299;SDS011;33036;51.320;17.234;2022-10-20T15:32:50;7.35;;;3.38;;
47299;SDS011;33036;51.320;17.234;2022-10-20T15:36:53;7.88;;;3.15;;
47299;SDS011;33036;51.320;17.234;2022-10-20T15:40:54;10.77;;;3.50;;
47299;SDS011;33036;51.320;17.234;2022-10-20T15:44:57;10.27;;;4.25;;
47299;SDS011;33036;51.320;17.234;2022-10-20T15:48:58;15.35;;;4.18;;
47299;SDS011;33036;51.320;17.234;2022-10-20T15:52:59;16.95;;;6.43;;
47299;SDS011;33036;51.320;17.234;2022-10-20T15:57:00;16.05;;;5.80;;
47299;SDS011;33036;51.320;17.234;2022-10-20T16:01:01;13.93;;;6.05;;
47299;SDS011;33036;51.320;17.234;2022-10-20T16:05:02;17.52;;;7.07;;
47299;SDS011;33036;51.320;17.234;2022-10-20T16:09:03;13.55;;;6.22;;
47299;SDS011;33036;51.320;17.234;2022-10-20T16:13:04;10.38;;;5.05;;
47299;SDS011;33036;51.320;17.234;2022-10-20T16:17:06;21.50;;;9.35;;
47299;SDS011;33036;51.320;17.234;2022-10-20T16:21:07;19.30;;;8.43;;
47299;SDS011;33036;51.320;17.234;2022-10-20T16:25:08;18.38;;;7.35;;
47299;SDS011;33036;51.320;17.234;2022-10-20T16:29:09;19.05;;;7.85;;
47299;SDS011;33036;51.320;17.234;2022-10-20T16:33:10;12.93;;;6.55;;
47299;SDS011;33036;51.320;17.234;2022-10-20T16:37:11;9.23;;;4.38;;
47299;SDS011;33036;51.320;17.234;2022-10-20T16:41:13;9.88;;;4.05;;
47299;SDS011;33036;51.320;17.234;2022-10-20T16:45:15;12.07;;;3.90;;
47299;SDS011;33036;51.320;17.234;2022-10-20T16:49:17;15.38;;;5.95;;
47299;SDS011;33036;51.320;17.234;2022-10-20T16:53:18;11.57;;;5.72;;
47299;SDS011;33036;51.320;17.234;2022-10-20T16:57:19;24.33;;;6.50;;
47299;SDS011;33036;51.320;17.234;2022-10-20T17:01:21;15.98;;;6.38;;
47299;SDS011;33036;51.320;17.234;2022-10-20T17:05:23;21.27;;;8.13;;
47299;SDS011;33036;51.320;17.234;2022-10-20T17:09:24;23.55;;;7.82;;
47299;SDS011;33036;51.320;17.234;2022-10-20T17:13:25;20.95;;;8.43;;
47299;SDS011;33036;51.320;17.234;2022-10-20T17:17:26;23.08;;;7.93;;
47299;SDS011;33036;51.320;17.234;2022-10-20T17:21:28;24.08;;;9.07;;
47299;SDS011;33036;51.320;17.234;2022-10-20T17:25:30;20.50;;;9.00;;
47299;SDS011;33036;51.320;17.234;2022-10-20T17:29:31;22.63;;;9.57;;
47299;SDS011;33036;51.320;17.234;2022-10-20T17:33:32;21.98;;;9.70;;
47299;SDS011;33036;51.320;17.234;2022-10-20T17:37:34;24.98;;;10.57;;
47299;SDS011;33036;51.320;17.234;2022-10-20T17:41:35;29.08;;;10.65;;
47299;SDS011;33036;51.320;17.234;2022-10-20T17:45:36;28.08;;;12.00;;
47299;SDS011;33036;51.320;17.234;2022-10-20T17:49:37;43.58;;;15.85;;
47299;SDS011;33036;51.320;17.234;2022-10-20T17:53:39;25.58;;;12.48;;
47299;SDS011;33036;51.320;17.234;2022-10-20T17:57:44;32.75;;;13.02;;
47299;SDS011;33036;51.320;17.234;2022-10-20T18:01:46;31.60;;;12.77;;
47299;SDS011;33036;51.320;17.234;2022-10-20T18:05:47;26.35;;;11.88;;
47299;SDS011;33036;51.320;17.234;2022-10-20T18:09:48;28.42;;;11.80;;
47299;SDS011;33036;51.320;17.234;2022-10-20T18:13:49;27.52;;;12.05;;
47299;SDS011;33036;51.320;17.234;2022-10-20T18:17:51;31.77;;;12.25;;
47299;SDS011;33036;51.320;17.234;2022-10-20T18:21:55;28.45;;;13.23;;
47299;SDS011;33036;51.320;17.234;2022-10-20T18:25:56;31.23;;;12.07;;
47299;SDS011;33036;51.320;17.234;2022-10-20T18:30:05;27.85;;;11.35;;
47299;SDS011;33036;51.320;17.234;2022-10-20T18:34:10;33.55;;;12.05;;
47299;SDS011;33036;51.320;17.234;2022-10-20T18:38:13;30.83;;;12.05;;
47299;SDS011;33036;51.320;17.234;2022-10-20T18:42:15;30.17;;;11.90;;
47299;SDS011;33036;51.320;17.234;2022-10-20T18:46:19;30.77;;;11.95;;
47299;SDS011;33036;51.320;17.234;2022-10-20T18:50:20;28.63;;;11.63;;
47299;SDS011;33036;51.320;17.234;2022-10-20T18:54:21;31.73;;;13.55;;
47299;SDS011;33036;51.320;17.234;2022-10-20T18:58:24;29.55;;;12.82;;
47299;SDS011;33036;51.320;17.234;2022-10-20T19:02:25;27.63;;;12.15;;
47299;SDS011;33036;51.320;17.234;2022-10-20T19:06:32;31.23;;;12.63;;
47299;SDS011;33036;51.320;17.234;2022-10-20T19:10:34;33.25;;;12.52;;
47299;SDS011;33036;51.320;17.234;2022-10-20T19:14:35;27.30;;;10.98;;
47299;SDS011;33036;51.320;17.234;2022-10-20T19:18:36;35.40;;;11.15;;
47299;SDS011;33036;51.320;17.234;2022-10-20T19:22:40;29.98;;;11.55;;
47299;SDS011;33036;51.320;17.234;2022-10-20T19:26:44;31.00;;;11.25;;
47299;SDS011;33036;51.320;17.234;2022-10-20T19:30:47;36.15;;;12.05;;
47299;SDS011;33036;51.320;17.234;2022-10-20T19:34:48;32.15;;;13.05;;
47299;SDS011;33036;51.320;17.234;2022-10-20T19:38:50;27.85;;;12.60;;
47299;SDS011;33036;51.320;17.234;2022-10-20T19:42:51;37.03;;;14.25;;
47299;SDS011;33036;51.320;17.234;2022-10-20T19:46:53;37.88;;;14.80;;
47299;SDS011;33036;51.320;17.234;2022-10-20T19:50:54;34.90;;;13.40;;
47299;SDS011;33036;51.320;17.234;2022-10-20T19:54:55;39.15;;;13.93;;
47299;SDS011;33036;51.320;17.234;2022-10-20T19:58:58;31.33;;;13.05;;
47299;SDS011;33036;51.320;17.234;2022-10-20T20:03:00;47.05;;;17.63;;
47299;SDS011;33036;51.320;17.234;2022-10-20T20:07:01;46.85;;;16.65;;
47299;SDS011;33036;51.320;17.234;2022-10-20T20:11:03;58.92;;;22.55;;
47299;SDS011;33036;51.320;17.234;2022-10-20T20:15:05;45.65;;;21.33;;
47299;SDS011;33036;51.320;17.234;2022-10-20T20:19:07;29.77;;;12.32;;
47299;SDS011;33036;51.320;17.234;2022-10-20T20:23:09;28.52;;;11.90;;
47299;SDS011;33036;51.320;17.234;2022-10-20T20:27:11;21.52;;;11.05;;
47299;SDS011;33036;51.320;17.234;2022-10-20T20:31:12;25.67;;;11.57;;
47299;SDS011;33036;51.320;17.234;2022-10-20T20:35:13;27.42;;;12.15;;
47299;SDS011;33036;51.320;17.234;2022-10-20T20:39:14;26.25;;;12.02;;
47299;SDS011;33036;51.320;17.234;2022-10-20T20:43:18;31.05;;;13.25;;
47299;SDS011;33036;51.320;17.234;2022-10-20T20:47:20;27.77;;;12.00;;
47299;SDS011;33036;51.320;17.234;2022-10-20T20:51:21;23.80;;;11.38;;
47299;SDS011;33036;51.320;17.234;2022-10-20T20:55:22;22.80;;;11.68;;
47299;SDS011;33036;51.320;17.234;2022-10-20T20:59:23;27.50;;;11.77;;
47299;SDS011;33036;51.320;17.234;2022-10-20T21:03:24;25.77;;;11.65;;
47299;SDS011;33036;51.320;17.234;2022-10-20T21:07:28;26.77;;;12.35;;
47299;SDS011;33036;51.320;17.234;2022-10-20T21:11:31;29.52;;;12.00;;
47299;SDS011;33036;51.320;17.234;2022-10-20T21:15:33;30.35;;;11.27;;
47299;SDS011;33036;51.320;17.234;2022-10-20T21:19:33;25.60;;;11.52;;
47299;SDS011;33036;51.320;17.234;2022-10-20T21:23:35;24.40;;;11.25;;
47299;SDS011;33036;51.320;17.234;2022-10-20T21:27:36;28.17;;;11.82;;
47299;SDS011;33036;51.320;17.234;2022-10-20T21:31:37;27.30;;;11.82;;
47299;SDS011;33036;51.320;17.234;2022-10-20T21:35:40;25.08;;;11.13;;
47299;SDS011;33036;51.320;17.234;2022-10-20T21:39:41;29.73;;;12.40;;
47299;SDS011;33036;51.320;17.234;2022-10-20T21:43:43;28.70;;;12.00;;
47299;SDS011;33036;51.320;17.234;2022-10-20T21:47:46;30.92;;;11.52;;
47299;SDS011;33036;51.320;17.234;2022-10-20T21:51:51;29.65;;;10.90;;
47299;SDS011;33036;51.320;17.234;2022-10-20T21:55:57;25.85;;;11.80;;
47299;SDS011;33036;51.320;17.234;2022-10-20T21:59:57;35.22;;;10.93;;
47299;SDS011;33036;51.320;17.234;2022-10-20T22:03:58;29.95;;;12.20;;
47299;SDS011;33036;51.320;17.234;2022-10-20T22:07:59;27.95;;;12.07;;
47299;SDS011;33036;51.320;17.234;2022-10-20T22:12:00;28.30;;;12.30;;
47299;SDS011;33036;51.320;17.234;2022-10-20T22:16:03;27.08;;;11.95;;
47299;SDS011;33036;51.320;17.234;2022-10-20T22:20:05;27.42;;;12.02;;
47299;SDS011;33036;51.320;17.234;2022-10-20T22:24:09;27.25;;;12.05;;
47299;SDS011;33036;51.320;17.234;2022-10-20T22:28:11;34.05;;;12.75;;
47299;SDS011;33036;51.320;17.234;2022-10-20T22:32:12;28.90;;;12.90;;
47299;SDS011;33036;51.320;17.234;2022-10-20T22:36:13;27.23;;;12.63;;
47299;SDS011;33036;51.320;17.234;2022-10-20T22:40:14;29.17;;;12.40;;
47299;SDS011;33036;51.320;17.234;2022-10-20T22:44:15;30.88;;;13.75;;
47299;SDS011;33036;51.320;17.234;2022-10-20T22:48:16;28.98;;;13.70;;
47299;SDS011;33036;51.320;17.234;2022-10-20T22:52:17;26.92;;;12.80;;
47299;SDS011;33036;51.320;17.234;2022-10-20T22:56:18;33.30;;;14.23;;
47299;SDS011;33036;51.320;17.234;2022-10-20T23:00:21;32.33;;;13.77;;
47299;SDS011;33036;51.320;17.234;2022-10-20T23:04:21;28.50;;;14.75;;
47299;SDS011;33036;51.320;17.234;2022-10-20T23:08:22;31.60;;;13.25;;
47299;SDS011;33036;51.320;17.234;2022-10-20T23:12:23;36.80;;;15.38;;
47299;SDS011;33036;51.320;17.234;2022-10-20T23:16:24;33.10;;;13.85;;
47299;SDS011;33036;51.320;17.234;2022-10-20T23:20:25;33.10;;;13.98;;
47299;SDS011;33036;51.320;17.234;2022-10-20T23:24:26;31.48;;;13.90;;
47299;SDS011;33036;51.320;17.234;2022-10-20T23:28:27;31.48;;;14.60;;
47299;SDS011;33036;51.320;17.234;2022-10-20T23:32:28;32.80;;;15.07;;
47299;SDS011;33036;51.320;17.234;2022-10-20T23:36:29;32.03;;;14.40;;
47299;SDS011;33036;51.320;17.234;2022-10-20T23:40:31;31.17;;;14.68;;
47299;SDS011;33036;51.320;17.234;2022-10-20T23:44:32;29.48;;;14.07;;
47299;SDS011;33036;51.320;17.234;2022-10-20T23:48:33;40.00;;;15.75;;
47299;SDS011;33036;51.320;17.234;2022-10-20T23:52:34;37.05;;;16.23;;
47299;SDS011;33036;51.320;17.234;2022-10-20T23:56:35;37.50;;;17.35;;
